sensor_id;sensor_type;location;lat;lon;timestamp;temperature;humidity
3202;DHT22;34843;48.744;8.958;2024-03-02T00:00:19;5.10;99.90
3202;DHT22;34843;48.744;8.958;2024-03-02T00:02:47;5.10;99.90
3202;DHT22;34843;48.744;8.958;2024-03-02T00:05:15;5.00;99.90
3202;DHT22;34843;48.744;8.958;2024-03-02T00:07:42;5.00;99.90
3202;DHT22;34843;48.744;8.958;2024-03-02T00:10:10;5.00;99.90
3202;DHT22;34843;48.744;8.958;2024-03-02T00:12:41;5.00;99.90
3202;DHT22;34843;48.744;8.958;2024-03-02T00:17:56;5.00;99.90
3202;DHT22;34843;48.744;8.958;2024-03-02T00:20:23;5.00;99.90
3202;DHT22;34843;48.744;8.958;2024-03-02T00:22:51;5.00;99.90
3202;DHT22;34843;48.744;8.958;2024-03-02T00:25:19;4.90;99.90
3202;DHT22;34843;48.744;8.958;2024-03-02T00:27:47;4.90;99.90
3202;DHT22;34843;48.744;8.958;2024-03-02T00:30:40;4.90;99.90
3202;DHT22;34843;48.744;8.958;2024-03-02T00:33:11;5.00;99.90
3202;DHT22;34843;48.744;8.958;2024-03-02T00:35:37;4.90;99.90
3202;DHT22;34843;48.744;8.958;2024-03-02T00:38:06;4.90;99.90
3202;DHT22;34843;48.744;8.958;2024-03-02T00:40:32;4.90;99.90
3202;DHT22;34843;48.744;8.958;2024-03-02T00:42:58;5.00;99.90
3202;DHT22;34843;48.744;8.958;2024-03-02T00:45:24;5.00;99.90
3202;DHT22;34843;48.744;8.958;2024-03-02T00:47:50;5.00;99.90
3202;DHT22;34843;48.744;8.958;2024-03-02T00:50:16;5.10;99.90
3202;DHT22;34843;48.744;8.958;2024-03-02T00:52:41;5.10;99.90
3202;DHT22;34843;48.744;8.958;2024-03-02T00:55:08;5.10;99.90
3202;DHT22;34843;48.744;8.958;2024-03-02T00:57:34;5.10;99.90
3202;DHT22;34843;48.744;8.958;2024-03-02T01:00:00;5.10;99.90
3202;DHT22;34843;48.744;8.958;2024-03-02T01:02:26;5.10;99.90
3202;DHT22;34843;48.744;8.958;2024-03-02T01:04:52;5.10;99.90
3202;DHT22;34843;48.744;8.958;2024-03-02T01:07:17;5.10;99.90
3202;DHT22;34843;48.744;8.958;2024-03-02T01:09:43;5.10;99.90
3202;DHT22;34843;48.744;8.958;2024-03-02T01:12:08;5.00;99.90
3202;DHT22;34843;48.744;8.958;2024-03-02T01:14:34;4.90;99.90
3202;DHT22;34843;48.744;8.958;2024-03-02T01:17:00;4.90;99.90
3202;DHT22;34843;48.744;8.958;2024-03-02T01:19:28;4.90;99.90
3202;DHT22;34843;48.744;8.958;2024-03-02T01:21:54;4.80;99.90
3202;DHT22;34843;48.744;8.958;2024-03-02T01:24:19;4.80;99.90
3202;DHT22;34843;48.744;8.958;2024-03-02T01:26:45;4.70;99.90
3202;DHT22;34843;48.744;8.958;2024-03-02T01:29:10;4.70;99.90
3202;DHT22;34843;48.744;8.958;2024-03-02T01:31:36;4.60;99.90
3202;DHT22;34843;48.744;8.958;2024-03-02T01:34:01;4.60;99.90
3202;DHT22;34843;48.744;8.958;2024-03-02T01:36:27;4.60;99.90
3202;DHT22;34843;48.744;8.958;2024-03-02T01:38:52;4.50;99.90
3202;DHT22;34843;48.744;8.958;2024-03-02T01:41:18;4.50;99.90
3202;DHT22;34843;48.744;8.958;2024-03-02T01:43:43;4.40;99.90
3202;DHT22;34843;48.744;8.958;2024-03-02T01:46:09;4.40;99.90
3202;DHT22;34843;48.744;8.958;2024-03-02T01:48:34;4.40;99.90
3202;DHT22;34843;48.744;8.958;2024-03-02T01:51:00;4.30;99.90
3202;DHT22;34843;48.744;8.958;2024-03-02T01:53:26;4.30;99.90
3202;DHT22;34843;48.744;8.958;2024-03-02T01:55:52;4.30;99.90
3202;DHT22;34843;48.744;8.958;2024-03-02T01:58:17;4.30;99.90
3202;DHT22;34843;48.744;8.958;2024-03-02T02:00:43;4.30;99.90
3202;DHT22;34843;48.744;8.958;2024-03-02T02:03:08;4.30;99.90
3202;DHT22;34843;48.744;8.958;2024-03-02T02:05:34;4.30;99.90
3202;DHT22;34843;48.744;8.958;2024-03-02T02:08:01;4.20;99.90
3202;DHT22;34843;48.744;8.958;2024-03-02T02:10:26;4.10;99.90
3202;DHT22;34843;48.744;8.958;2024-03-02T02:12:52;4.10;99.90
3202;DHT22;34843;48.744;8.958;2024-03-02T02:15:27;4.00;99.90
3202;DHT22;34843;48.744;8.958;2024-03-02T02:17:54;4.00;99.90
3202;DHT22;34843;48.744;8.958;2024-03-02T02:20:19;4.00;99.90
3202;DHT22;34843;48.744;8.958;2024-03-02T02:25:23;4.00;99.90
3202;DHT22;34843;48.744;8.958;2024-03-02T02:27:48;3.90;99.90
3202;DHT22;34843;48.744;8.958;2024-03-02T02:30:14;3.90;99.90
3202;DHT22;34843;48.744;8.958;2024-03-02T02:32:43;3.80;99.90
3202;DHT22;34843;48.744;8.958;2024-03-02T02:35:09;3.80;99.90
3202;DHT22;34843;48.744;8.958;2024-03-02T02:37:34;3.80;99.90
3202;DHT22;34843;48.744;8.958;2024-03-02T02:40:00;3.80;99.90
3202;DHT22;34843;48.744;8.958;2024-03-02T02:42:25;3.70;99.90
3202;DHT22;34843;48.744;8.958;2024-03-02T02:44:51;3.60;99.90
3202;DHT22;34843;48.744;8.958;2024-03-02T02:47:16;3.60;99.90
3202;DHT22;34843;48.744;8.958;2024-03-02T02:49:41;3.50;99.90
3202;DHT22;34843;48.744;8.958;2024-03-02T02:52:07;3.50;99.90
3202;DHT22;34843;48.744;8.958;2024-03-02T02:54:32;3.40;99.90
3202;DHT22;34843;48.744;8.958;2024-03-02T02:56:58;3.40;99.90
3202;DHT22;34843;48.744;8.958;2024-03-02T02:59:24;3.30;99.90
3202;DHT22;34843;48.744;8.958;2024-03-02T03:01:51;3.30;99.90
3202;DHT22;34843;48.744;8.958;2024-03-02T03:04:17;3.30;99.90
3202;DHT22;34843;48.744;8.958;2024-03-02T03:06:42;3.20;99.90
3202;DHT22;34843;48.744;8.958;2024-03-02T03:09:08;3.20;99.90
3202;DHT22;34843;48.744;8.958;2024-03-02T03:11:36;3.20;99.90
3202;DHT22;34843;48.744;8.958;2024-03-02T03:14:01;3.10;99.90
3202;DHT22;34843;48.744;8.958;2024-03-02T03:16:27;3.10;99.90
3202;DHT22;34843;48.744;8.958;2024-03-02T03:18:52;3.10;99.90
3202;DHT22;34843;48.744;8.958;2024-03-02T03:21:18;3.00;99.90
3202;DHT22;34843;48.744;8.958;2024-03-02T03:23:44;3.00;99.90
3202;DHT22;34843;48.744;8.958;2024-03-02T03:26:10;3.00;99.90
3202;DHT22;34843;48.744;8.958;2024-03-02T03:28:36;3.00;99.90
3202;DHT22;34843;48.744;8.958;2024-03-02T03:31:01;3.00;99.90
3202;DHT22;34843;48.744;8.958;2024-03-02T03:33:27;2.90;99.90
3202;DHT22;34843;48.744;8.958;2024-03-02T03:35:53;2.90;99.90
3202;DHT22;34843;48.744;8.958;2024-03-02T03:38:18;2.90;99.90
3202;DHT22;34843;48.744;8.958;2024-03-02T03:40:44;2.80;99.90
3202;DHT22;34843;48.744;8.958;2024-03-02T03:43:10;2.70;99.90
3202;DHT22;34843;48.744;8.958;2024-03-02T03:45:35;2.70;99.90
3202;DHT22;34843;48.744;8.958;2024-03-02T03:48:02;2.60;99.90
3202;DHT22;34843;48.744;8.958;2024-03-02T03:50:27;2.50;99.90
3202;DHT22;34843;48.744;8.958;2024-03-02T03:52:53;2.50;99.90
3202;DHT22;34843;48.744;8.958;2024-03-02T03:55:18;2.40;99.90
3202;DHT22;34843;48.744;8.958;2024-03-02T03:57:44;2.30;99.90
3202;DHT22;34843;48.744;8.958;2024-03-02T04:00:10;2.30;99.90
3202;DHT22;34843;48.744;8.958;2024-03-02T04:02:36;2.30;99.90
3202;DHT22;34843;48.744;8.958;2024-03-02T04:05:01;2.30;99.90
3202;DHT22;34843;48.744;8.958;2024-03-02T04:07:30;2.20;99.90
3202;DHT22;34843;48.744;8.958;2024-03-02T04:09:55;2.20;99.90
3202;DHT22;34843;48.744;8.958;2024-03-02T04:12:21;2.20;99.90
3202;DHT22;34843;48.744;8.958;2024-03-02T04:14:47;2.20;99.90
3202;DHT22;34843;48.744;8.958;2024-03-02T04:17:12;2.20;99.90
3202;DHT22;34843;48.744;8.958;2024-03-02T04:19:38;2.20;99.90
3202;DHT22;34843;48.744;8.958;2024-03-02T04:22:04;2.10;99.90
3202;DHT22;34843;48.744;8.958;2024-03-02T04:24:29;2.10;99.90
3202;DHT22;34843;48.744;8.958;2024-03-02T04:26:55;2.00;99.90
3202;DHT22;34843;48.744;8.958;2024-03-02T04:29:21;2.00;99.90
3202;DHT22;34843;48.744;8.958;2024-03-02T04:31:46;1.90;99.90
3202;DHT22;34843;48.744;8.958;2024-03-02T04:34:12;1.90;99.90
3202;DHT22;34843;48.744;8.958;2024-03-02T04:36:37;1.90;99.90
3202;DHT22;34843;48.744;8.958;2024-03-02T04:39:03;1.80;99.90
3202;DHT22;34843;48.744;8.958;2024-03-02T04:41:28;1.80;99.90
3202;DHT22;34843;48.744;8.958;2024-03-02T04:43:54;1.80;99.90
3202;DHT22;34843;48.744;8.958;2024-03-02T04:46:19;1.70;99.90
3202;DHT22;34843;48.744;8.958;2024-03-02T04:48:45;1.70;99.90
3202;DHT22;34843;48.744;8.958;2024-03-02T04:51:10;1.70;99.90
3202;DHT22;34843;48.744;8.958;2024-03-02T04:53:36;1.70;99.90
3202;DHT22;34843;48.744;8.958;2024-03-02T04:56:02;1.70;99.90
3202;DHT22;34843;48.744;8.958;2024-03-02T04:59:05;1.70;99.90
3202;DHT22;34843;48.744;8.958;2024-03-02T05:01:31;1.80;99.90
3202;DHT22;34843;48.744;8.958;2024-03-02T05:03:57;1.80;99.90
3202;DHT22;34843;48.744;8.958;2024-03-02T05:06:22;1.80;99.90
3202;DHT22;34843;48.744;8.958;2024-03-02T05:08:49;1.70;99.90
3202;DHT22;34843;48.744;8.958;2024-03-02T05:11:14;1.60;99.90
3202;DHT22;34843;48.744;8.958;2024-03-02T05:13:58;1.60;99.90
3202;DHT22;34843;48.744;8.958;2024-03-02T05:16:24;1.60;99.90
3202;DHT22;34843;48.744;8.958;2024-03-02T05:18:49;1.70;99.90
3202;DHT22;34843;48.744;8.958;2024-03-02T05:21:15;1.70;99.90
3202;DHT22;34843;48.744;8.958;2024-03-02T05:23:40;1.60;99.90
3202;DHT22;34843;48.744;8.958;2024-03-02T05:26:05;1.60;99.90
3202;DHT22;34843;48.744;8.958;2024-03-02T05:28:31;1.50;99.90
3202;DHT22;34843;48.744;8.958;2024-03-02T05:30:57;1.60;99.90
3202;DHT22;34843;48.744;8.958;2024-03-02T05:33:22;1.50;99.90
3202;DHT22;34843;48.744;8.958;2024-03-02T05:35:48;1.50;99.90
3202;DHT22;34843;48.744;8.958;2024-03-02T05:38:15;1.50;99.90
3202;DHT22;34843;48.744;8.958;2024-03-02T05:40:40;1.60;99.90
3202;DHT22;34843;48.744;8.958;2024-03-02T05:43:06;1.60;99.90
3202;DHT22;34843;48.744;8.958;2024-03-02T05:45:31;1.60;99.90
3202;DHT22;34843;48.744;8.958;2024-03-02T05:47:57;1.70;99.90
3202;DHT22;34843;48.744;8.958;2024-03-02T05:50:23;1.70;99.90
3202;DHT22;34843;48.744;8.958;2024-03-02T05:52:48;1.70;99.90
3202;DHT22;34843;48.744;8.958;2024-03-02T05:55:14;1.70;99.90
3202;DHT22;34843;48.744;8.958;2024-03-02T05:57:40;1.80;99.90
3202;DHT22;34843;48.744;8.958;2024-03-02T06:00:09;1.90;99.90
3202;DHT22;34843;48.744;8.958;2024-03-02T06:02:34;2.00;99.90
3202;DHT22;34843;48.744;8.958;2024-03-02T06:05:00;2.10;99.90
3202;DHT22;34843;48.744;8.958;2024-03-02T06:07:26;2.20;99.90
3202;DHT22;34843;48.744;8.958;2024-03-02T06:09:51;2.20;99.90
3202;DHT22;34843;48.744;8.958;2024-03-02T06:12:18;2.40;99.90
3202;DHT22;34843;48.744;8.958;2024-03-02T06:14:44;2.50;99.90
3202;DHT22;34843;48.744;8.958;2024-03-02T06:17:09;2.50;99.90
3202;DHT22;34843;48.744;8.958;2024-03-02T06:19:35;2.60;99.90
3202;DHT22;34843;48.744;8.958;2024-03-02T06:22:00;2.70;99.90
3202;DHT22;34843;48.744;8.958;2024-03-02T06:24:26;2.70;99.90
3202;DHT22;34843;48.744;8.958;2024-03-02T06:26:51;2.80;99.90
3202;DHT22;34843;48.744;8.958;2024-03-02T06:29:17;2.90;99.90
3202;DHT22;34843;48.744;8.958;2024-03-02T06:31:43;3.10;99.90
3202;DHT22;34843;48.744;8.958;2024-03-02T06:34:08;3.20;99.90
3202;DHT22;34843;48.744;8.958;2024-03-02T06:36:34;3.20;99.90
3202;DHT22;34843;48.744;8.958;2024-03-02T06:38:59;3.30;99.90
3202;DHT22;34843;48.744;8.958;2024-03-02T06:41:25;3.30;99.90
3202;DHT22;34843;48.744;8.958;2024-03-02T06:43:52;3.40;99.90
3202;DHT22;34843;48.744;8.958;2024-03-02T06:46:25;3.50;99.90
3202;DHT22;34843;48.744;8.958;2024-03-02T06:48:50;3.60;99.90
3202;DHT22;34843;48.744;8.958;2024-03-02T06:51:16;3.70;99.90
3202;DHT22;34843;48.744;8.958;2024-03-02T06:53:41;3.80;99.90
3202;DHT22;34843;48.744;8.958;2024-03-02T06:56:07;3.90;99.90
3202;DHT22;34843;48.744;8.958;2024-03-02T06:58:33;4.00;99.90
3202;DHT22;34843;48.744;8.958;2024-03-02T07:00:59;4.20;99.90
3202;DHT22;34843;48.744;8.958;2024-03-02T07:03:25;4.40;99.90
3202;DHT22;34843;48.744;8.958;2024-03-02T07:05:51;4.80;99.90
3202;DHT22;34843;48.744;8.958;2024-03-02T07:08:17;5.40;99.90
3202;DHT22;34843;48.744;8.958;2024-03-02T07:10:42;5.70;99.90
3202;DHT22;34843;48.744;8.958;2024-03-02T07:13:07;5.90;99.90
3202;DHT22;34843;48.744;8.958;2024-03-02T07:15:33;5.90;99.90
3202;DHT22;34843;48.744;8.958;2024-03-02T07:18:17;5.70;99.90
3202;DHT22;34843;48.744;8.958;2024-03-02T07:20:42;5.70;99.90
3202;DHT22;34843;48.744;8.958;2024-03-02T07:23:08;5.50;99.90
3202;DHT22;34843;48.744;8.958;2024-03-02T07:25:34;5.30;99.90
3202;DHT22;34843;48.744;8.958;2024-03-02T07:28:00;5.20;99.90
3202;DHT22;34843;48.744;8.958;2024-03-02T07:30:25;5.10;99.90
3202;DHT22;34843;48.744;8.958;2024-03-02T07:32:51;5.10;99.90
3202;DHT22;34843;48.744;8.958;2024-03-02T07:35:16;5.10;99.90
3202;DHT22;34843;48.744;8.958;2024-03-02T07:37:43;5.10;99.90
3202;DHT22;34843;48.744;8.958;2024-03-02T07:40:09;5.20;99.90
3202;DHT22;34843;48.744;8.958;2024-03-02T07:42:37;5.20;99.90
3202;DHT22;34843;48.744;8.958;2024-03-02T07:45:04;5.30;99.90
3202;DHT22;34843;48.744;8.958;2024-03-02T07:47:30;5.30;99.90
3202;DHT22;34843;48.744;8.958;2024-03-02T07:49:55;5.40;99.90
3202;DHT22;34843;48.744;8.958;2024-03-02T07:52:21;5.30;99.90
3202;DHT22;34843;48.744;8.958;2024-03-02T07:54:46;5.40;99.90
3202;DHT22;34843;48.744;8.958;2024-03-02T07:57:12;5.50;99.90
3202;DHT22;34843;48.744;8.958;2024-03-02T07:59:37;5.70;99.90
3202;DHT22;34843;48.744;8.958;2024-03-02T08:02:03;6.10;99.90
3202;DHT22;34843;48.744;8.958;2024-03-02T08:04:29;6.50;99.90
3202;DHT22;34843;48.744;8.958;2024-03-02T08:06:55;6.80;99.90
3202;DHT22;34843;48.744;8.958;2024-03-02T08:09:20;7.20;99.90
3202;DHT22;34843;48.744;8.958;2024-03-02T08:11:46;7.50;99.90
3202;DHT22;34843;48.744;8.958;2024-03-02T08:14:11;7.70;99.90
3202;DHT22;34843;48.744;8.958;2024-03-02T08:16:37;7.70;99.90
3202;DHT22;34843;48.744;8.958;2024-03-02T08:19:02;7.60;99.90
3202;DHT22;34843;48.744;8.958;2024-03-02T08:21:28;7.50;99.90
3202;DHT22;34843;48.744;8.958;2024-03-02T08:23:57;7.30;99.90
3202;DHT22;34843;48.744;8.958;2024-03-02T08:26:23;7.20;99.90
3202;DHT22;34843;48.744;8.958;2024-03-02T08:28:49;7.20;99.90
3202;DHT22;34843;48.744;8.958;2024-03-02T08:31:14;7.10;99.90
3202;DHT22;34843;48.744;8.958;2024-03-02T08:33:40;7.10;99.90
3202;DHT22;34843;48.744;8.958;2024-03-02T08:36:06;7.10;99.90
3202;DHT22;34843;48.744;8.958;2024-03-02T08:38:31;7.20;99.90
3202;DHT22;34843;48.744;8.958;2024-03-02T08:40:57;7.20;99.90
3202;DHT22;34843;48.744;8.958;2024-03-02T08:43:23;7.40;99.90
3202;DHT22;34843;48.744;8.958;2024-03-02T08:45:49;7.50;99.90
3202;DHT22;34843;48.744;8.958;2024-03-02T08:48:14;7.50;99.90
3202;DHT22;34843;48.744;8.958;2024-03-02T08:50:40;7.60;99.90
3202;DHT22;34843;48.744;8.958;2024-03-02T08:53:05;7.60;99.90
3202;DHT22;34843;48.744;8.958;2024-03-02T08:55:31;7.80;99.90
3202;DHT22;34843;48.744;8.958;2024-03-02T08:57:57;7.80;99.90
3202;DHT22;34843;48.744;8.958;2024-03-02T09:00:23;8.00;99.90
3202;DHT22;34843;48.744;8.958;2024-03-02T09:02:48;8.20;99.90
3202;DHT22;34843;48.744;8.958;2024-03-02T09:05:14;8.20;99.90
3202;DHT22;34843;48.744;8.958;2024-03-02T09:07:40;8.40;99.90
3202;DHT22;34843;48.744;8.958;2024-03-02T09:10:06;8.50;99.90
3202;DHT22;34843;48.744;8.958;2024-03-02T09:12:32;8.50;99.90
3202;DHT22;34843;48.744;8.958;2024-03-02T09:14:59;8.60;99.90
3202;DHT22;34843;48.744;8.958;2024-03-02T09:17:24;8.70;99.90
3202;DHT22;34843;48.744;8.958;2024-03-02T09:19:50;8.60;99.90
3202;DHT22;34843;48.744;8.958;2024-03-02T09:22:18;8.70;99.90
3202;DHT22;34843;48.744;8.958;2024-03-02T09:24:43;8.80;99.90
3202;DHT22;34843;48.744;8.958;2024-03-02T09:27:09;8.80;99.90
3202;DHT22;34843;48.744;8.958;2024-03-02T09:29:34;8.90;99.90
3202;DHT22;34843;48.744;8.958;2024-03-02T09:32:00;9.00;99.90
3202;DHT22;34843;48.744;8.958;2024-03-02T09:34:26;9.10;99.90
3202;DHT22;34843;48.744;8.958;2024-03-02T09:36:52;9.10;99.90
3202;DHT22;34843;48.744;8.958;2024-03-02T09:39:18;9.20;99.90
3202;DHT22;34843;48.744;8.958;2024-03-02T09:41:43;9.40;99.90
3202;DHT22;34843;48.744;8.958;2024-03-02T09:44:09;9.40;99.90
3202;DHT22;34843;48.744;8.958;2024-03-02T09:46:35;9.40;99.90
3202;DHT22;34843;48.744;8.958;2024-03-02T09:49:02;9.50;99.90
3202;DHT22;34843;48.744;8.958;2024-03-02T09:51:27;9.60;99.90
3202;DHT22;34843;48.744;8.958;2024-03-02T09:53:54;9.70;99.90
3202;DHT22;34843;48.744;8.958;2024-03-02T09:56:21;10.00;99.90
3202;DHT22;34843;48.744;8.958;2024-03-02T09:58:46;10.10;99.90
3202;DHT22;34843;48.744;8.958;2024-03-02T10:01:12;10.20;99.90
3202;DHT22;34843;48.744;8.958;2024-03-02T10:03:38;10.40;99.90
3202;DHT22;34843;48.744;8.958;2024-03-02T10:06:21;10.50;99.90
3202;DHT22;34843;48.744;8.958;2024-03-02T10:08:46;10.60;99.90
3202;DHT22;34843;48.744;8.958;2024-03-02T10:11:30;10.80;99.90
3202;DHT22;34843;48.744;8.958;2024-03-02T10:14:07;10.90;99.90
3202;DHT22;34843;48.744;8.958;2024-03-02T10:16:34;11.00;99.90
3202;DHT22;34843;48.744;8.958;2024-03-02T10:19:15;11.10;99.90
3202;DHT22;34843;48.744;8.958;2024-03-02T10:21:42;11.20;99.90
3202;DHT22;34843;48.744;8.958;2024-03-02T10:24:07;11.30;99.90
3202;DHT22;34843;48.744;8.958;2024-03-02T10:26:33;11.40;99.90
3202;DHT22;34843;48.744;8.958;2024-03-02T10:28:58;11.50;99.90
3202;DHT22;34843;48.744;8.958;2024-03-02T10:31:25;11.60;99.90
3202;DHT22;34843;48.744;8.958;2024-03-02T10:33:54;11.70;99.90
3202;DHT22;34843;48.744;8.958;2024-03-02T10:36:20;11.70;99.90
3202;DHT22;34843;48.744;8.958;2024-03-02T10:38:46;11.80;99.90
3202;DHT22;34843;48.744;8.958;2024-03-02T10:41:17;11.80;99.90
3202;DHT22;34843;48.744;8.958;2024-03-02T10:43:43;11.80;99.90
3202;DHT22;34843;48.744;8.958;2024-03-02T10:46:10;11.90;99.90
3202;DHT22;34843;48.744;8.958;2024-03-02T10:48:39;12.00;99.90
3202;DHT22;34843;48.744;8.958;2024-03-02T10:51:06;12.10;99.90
3202;DHT22;34843;48.744;8.958;2024-03-02T10:53:31;12.30;99.90
3202;DHT22;34843;48.744;8.958;2024-03-02T10:55:58;12.50;99.90
3202;DHT22;34843;48.744;8.958;2024-03-02T10:58:32;12.50;99.90
3202;DHT22;34843;48.744;8.958;2024-03-02T11:01:04;12.60;99.90
3202;DHT22;34843;48.744;8.958;2024-03-02T11:03:33;12.70;99.90
3202;DHT22;34843;48.744;8.958;2024-03-02T11:06:00;12.70;99.90
3202;DHT22;34843;48.744;8.958;2024-03-02T11:08:28;12.80;99.90
3202;DHT22;34843;48.744;8.958;2024-03-02T11:11:09;12.80;99.90
3202;DHT22;34843;48.744;8.958;2024-03-02T11:13:42;12.90;99.90
3202;DHT22;34843;48.744;8.958;2024-03-02T11:16:18;13.00;99.90
3202;DHT22;34843;48.744;8.958;2024-03-02T11:18:48;13.20;99.90
3202;DHT22;34843;48.744;8.958;2024-03-02T11:21:15;13.30;99.90
3202;DHT22;34843;48.744;8.958;2024-03-02T11:23:41;13.20;99.90
3202;DHT22;34843;48.744;8.958;2024-03-02T11:28:44;13.40;99.90
3202;DHT22;34843;48.744;8.958;2024-03-02T11:31:10;13.50;99.90
3202;DHT22;34843;48.744;8.958;2024-03-02T11:33:36;13.50;99.90
3202;DHT22;34843;48.744;8.958;2024-03-02T11:36:01;13.60;99.90
3202;DHT22;34843;48.744;8.958;2024-03-02T11:38:31;13.60;99.90
3202;DHT22;34843;48.744;8.958;2024-03-02T11:40:59;13.60;99.90
3202;DHT22;34843;48.744;8.958;2024-03-02T11:43:27;13.50;99.90
3202;DHT22;34843;48.744;8.958;2024-03-02T11:45:57;13.50;99.90
3202;DHT22;34843;48.744;8.958;2024-03-02T11:48:25;13.40;99.90
3202;DHT22;34843;48.744;8.958;2024-03-02T11:50:51;13.30;99.90
3202;DHT22;34843;48.744;8.958;2024-03-02T11:53:17;13.20;99.90
3202;DHT22;34843;48.744;8.958;2024-03-02T11:55:44;13.10;99.90
3202;DHT22;34843;48.744;8.958;2024-03-02T11:58:15;13.10;99.90
3202;DHT22;34843;48.744;8.958;2024-03-02T12:00:46;13.30;99.90
3202;DHT22;34843;48.744;8.958;2024-03-02T12:03:13;13.40;99.90
3202;DHT22;34843;48.744;8.958;2024-03-02T12:05:39;13.60;99.90
3202;DHT22;34843;48.744;8.958;2024-03-02T12:08:08;13.60;99.90
3202;DHT22;34843;48.744;8.958;2024-03-02T12:10:35;13.70;99.90
3202;DHT22;34843;48.744;8.958;2024-03-02T12:13:03;13.70;99.90
3202;DHT22;34843;48.744;8.958;2024-03-02T12:15:31;13.70;99.90
3202;DHT22;34843;48.744;8.958;2024-03-02T12:17:59;13.90;99.90
3202;DHT22;34843;48.744;8.958;2024-03-02T12:20:26;14.10;99.90
3202;DHT22;34843;48.744;8.958;2024-03-02T12:22:53;14.20;99.90
3202;DHT22;34843;48.744;8.958;2024-03-02T12:25:23;14.20;99.90
3202;DHT22;34843;48.744;8.958;2024-03-02T12:27:50;14.30;99.90
3202;DHT22;34843;48.744;8.958;2024-03-02T12:30:17;14.40;99.90
3202;DHT22;34843;48.744;8.958;2024-03-02T12:32:43;14.50;99.90
3202;DHT22;34843;48.744;8.958;2024-03-02T12:35:10;14.60;99.90
3202;DHT22;34843;48.744;8.958;2024-03-02T12:37:47;14.60;99.90
3202;DHT22;34843;48.744;8.958;2024-03-02T12:40:14;14.50;99.90
3202;DHT22;34843;48.744;8.958;2024-03-02T12:42:40;14.50;99.90
3202;DHT22;34843;48.744;8.958;2024-03-02T12:45:07;14.50;99.90
3202;DHT22;34843;48.744;8.958;2024-03-02T12:47:34;14.60;99.90
3202;DHT22;34843;48.744;8.958;2024-03-02T12:50:00;14.60;99.90
3202;DHT22;34843;48.744;8.958;2024-03-02T12:52:26;14.40;99.90
3202;DHT22;34843;48.744;8.958;2024-03-02T12:54:51;14.40;99.90
3202;DHT22;34843;48.744;8.958;2024-03-02T12:57:18;14.40;99.90
3202;DHT22;34843;48.744;8.958;2024-03-02T12:59:47;14.40;99.90
3202;DHT22;34843;48.744;8.958;2024-03-02T13:02:19;14.50;99.90
3202;DHT22;34843;48.744;8.958;2024-03-02T13:04:52;14.60;99.90
3202;DHT22;34843;48.744;8.958;2024-03-02T13:07:19;14.60;99.90
3202;DHT22;34843;48.744;8.958;2024-03-02T13:09:45;14.60;99.90
3202;DHT22;34843;48.744;8.958;2024-03-02T13:12:11;14.60;99.90
3202;DHT22;34843;48.744;8.958;2024-03-02T13:14:37;14.50;99.90
3202;DHT22;34843;48.744;8.958;2024-03-02T13:17:02;14.50;99.90
3202;DHT22;34843;48.744;8.958;2024-03-02T13:19:31;14.50;99.90
3202;DHT22;34843;48.744;8.958;2024-03-02T13:21:57;14.60;99.90
3202;DHT22;34843;48.744;8.958;2024-03-02T13:24:23;14.60;99.90
3202;DHT22;34843;48.744;8.958;2024-03-02T13:26:53;14.60;99.90
3202;DHT22;34843;48.744;8.958;2024-03-02T13:29:21;14.60;99.90
3202;DHT22;34843;48.744;8.958;2024-03-02T13:31:47;14.50;99.90
3202;DHT22;34843;48.744;8.958;2024-03-02T13:34:12;14.40;99.90
3202;DHT22;34843;48.744;8.958;2024-03-02T13:36:38;14.30;99.90
3202;DHT22;34843;48.744;8.958;2024-03-02T13:39:04;14.20;99.90
3202;DHT22;34843;48.744;8.958;2024-03-02T13:41:31;14.10;99.90
3202;DHT22;34843;48.744;8.958;2024-03-02T13:43:57;14.00;99.90
3202;DHT22;34843;48.744;8.958;2024-03-02T13:46:22;13.90;99.90
3202;DHT22;34843;48.744;8.958;2024-03-02T13:48:48;13.90;99.90
3202;DHT22;34843;48.744;8.958;2024-03-02T13:51:13;13.90;99.90
3202;DHT22;34843;48.744;8.958;2024-03-02T13:53:39;13.90;99.90
3202;DHT22;34843;48.744;8.958;2024-03-02T13:56:05;13.80;99.90
3202;DHT22;34843;48.744;8.958;2024-03-02T13:58:31;13.80;99.90
3202;DHT22;34843;48.744;8.958;2024-03-02T14:00:57;13.80;99.90
3202;DHT22;34843;48.744;8.958;2024-03-02T14:03:23;13.80;99.90
3202;DHT22;34843;48.744;8.958;2024-03-02T14:05:48;13.70;99.90
3202;DHT22;34843;48.744;8.958;2024-03-02T14:08:15;13.70;99.90
3202;DHT22;34843;48.744;8.958;2024-03-02T14:10:41;13.70;99.90
3202;DHT22;34843;48.744;8.958;2024-03-02T14:13:08;13.70;99.90
3202;DHT22;34843;48.744;8.958;2024-03-02T14:15:33;13.80;99.90
3202;DHT22;34843;48.744;8.958;2024-03-02T14:17:59;13.80;99.90
3202;DHT22;34843;48.744;8.958;2024-03-02T14:20:24;13.80;99.90
3202;DHT22;34843;48.744;8.958;2024-03-02T14:22:50;13.90;99.90
3202;DHT22;34843;48.744;8.958;2024-03-02T14:25:16;13.90;99.90
3202;DHT22;34843;48.744;8.958;2024-03-02T14:27:42;14.00;99.90
3202;DHT22;34843;48.744;8.958;2024-03-02T14:30:08;14.10;99.90
3202;DHT22;34843;48.744;8.958;2024-03-02T14:32:33;14.10;99.90
3202;DHT22;34843;48.744;8.958;2024-03-02T14:34:59;14.10;99.90
3202;DHT22;34843;48.744;8.958;2024-03-02T14:37:24;14.10;99.90
3202;DHT22;34843;48.744;8.958;2024-03-02T14:39:50;14.10;99.90
3202;DHT22;34843;48.744;8.958;2024-03-02T14:42:16;14.20;99.90
3202;DHT22;34843;48.744;8.958;2024-03-02T14:44:41;14.20;99.90
3202;DHT22;34843;48.744;8.958;2024-03-02T14:47:07;14.10;99.90
3202;DHT22;34843;48.744;8.958;2024-03-02T14:49:33;14.10;99.90
3202;DHT22;34843;48.744;8.958;2024-03-02T14:52:01;14.10;99.90
3202;DHT22;34843;48.744;8.958;2024-03-02T14:54:26;14.00;99.90
3202;DHT22;34843;48.744;8.958;2024-03-02T14:56:52;14.10;99.90
3202;DHT22;34843;48.744;8.958;2024-03-02T14:59:17;14.10;99.90
3202;DHT22;34843;48.744;8.958;2024-03-02T15:01:44;14.10;99.90
3202;DHT22;34843;48.744;8.958;2024-03-02T15:04:09;14.10;99.90
3202;DHT22;34843;48.744;8.958;2024-03-02T15:06:35;14.10;99.90
3202;DHT22;34843;48.744;8.958;2024-03-02T15:09:00;14.00;99.90
3202;DHT22;34843;48.744;8.958;2024-03-02T15:11:27;14.10;99.90
3202;DHT22;34843;48.744;8.958;2024-03-02T15:13:52;14.00;99.90
3202;DHT22;34843;48.744;8.958;2024-03-02T15:16:18;14.00;99.90
3202;DHT22;34843;48.744;8.958;2024-03-02T15:18:43;14.00;99.90
3202;DHT22;34843;48.744;8.958;2024-03-02T15:21:10;14.00;99.90
3202;DHT22;34843;48.744;8.958;2024-03-02T15:23:36;13.90;99.90
3202;DHT22;34843;48.744;8.958;2024-03-02T15:26:02;13.90;99.90
3202;DHT22;34843;48.744;8.958;2024-03-02T15:28:27;13.90;99.90
3202;DHT22;34843;48.744;8.958;2024-03-02T15:30:52;13.80;99.90
3202;DHT22;34843;48.744;8.958;2024-03-02T15:33:18;13.80;99.90
3202;DHT22;34843;48.744;8.958;2024-03-02T15:35:44;13.80;99.90
3202;DHT22;34843;48.744;8.958;2024-03-02T15:38:09;13.70;99.90
3202;DHT22;34843;48.744;8.958;2024-03-02T15:40:37;13.70;99.90
3202;DHT22;34843;48.744;8.958;2024-03-02T15:43:03;13.70;99.90
3202;DHT22;34843;48.744;8.958;2024-03-02T15:45:28;13.60;99.90
3202;DHT22;34843;48.744;8.958;2024-03-02T15:47:59;13.60;99.90
3202;DHT22;34843;48.744;8.958;2024-03-02T15:50:24;13.60;99.90
3202;DHT22;34843;48.744;8.958;2024-03-02T15:52:50;13.60;99.90
3202;DHT22;34843;48.744;8.958;2024-03-02T15:55:16;13.50;99.90
3202;DHT22;34843;48.744;8.958;2024-03-02T15:57:41;13.50;99.90